createdAt,value
2023-05-05T00:01:43.549Z,14.40
2023-05-05T00:04:10.673Z,14.20
2023-05-05T00:06:38.148Z,14.20
2023-05-05T00:09:16.946Z,14.20
2023-05-05T00:11:44.392Z,13.80
2023-05-05T00:14:12.174Z,13.60
2023-05-05T00:16:39.762Z,13.50
2023-05-05T00:19:09.258Z,13.50
2023-05-05T00:21:38.702Z,13.70
2023-05-05T00:24:13.105Z,13.90
2023-05-05T00:26:43.148Z,14.00
2023-05-05T00:29:10.754Z,14.00
2023-05-05T00:31:38.105Z,13.90
2023-05-05T00:34:05.795Z,13.90
2023-05-05T00:36:36.238Z,13.90
2023-05-05T00:39:06.673Z,14.00
2023-05-05T00:41:34.107Z,13.90
2023-05-05T00:44:08.510Z,13.90
2023-05-05T00:46:36.639Z,13.90
2023-05-05T00:49:07.758Z,13.90
2023-05-05T00:51:37.609Z,13.90
2023-05-05T00:54:07.766Z,13.90
2023-05-05T00:56:35.010Z,13.80
2023-05-05T00:59:03.916Z,13.70
2023-05-05T01:01:36.496Z,13.70
2023-05-05T01:04:04.030Z,13.60
2023-05-05T01:07:04.783Z,13.50
2023-05-05T01:10:20.221Z,13.30
2023-05-05T01:13:08.647Z,13.20
2023-05-05T01:15:46.771Z,13.10
2023-05-05T01:18:42.013Z,13.30
2023-05-05T01:21:21.847Z,13.40
2023-05-05T01:24:17.567Z,13.60
2023-05-05T01:27:27.465Z,13.50
2023-05-05T01:30:36.448Z,13.50
2023-05-05T01:33:11.586Z,13.50
2023-05-05T01:35:53.977Z,13.50
2023-05-05T01:38:36.186Z,13.40
2023-05-05T01:41:21.965Z,13.30
2023-05-05T01:43:51.252Z,13.20
2023-05-05T01:46:20.067Z,13.30
2023-05-05T01:48:49.161Z,13.30
2023-05-05T01:51:19.370Z,13.30
2023-05-05T01:53:49.711Z,13.30
2023-05-05T01:56:17.607Z,13.10
2023-05-05T01:58:46.796Z,13.10
2023-05-05T02:01:14.933Z,13.10
2023-05-05T02:03:42.931Z,13.30
2023-05-05T02:06:15.223Z,13.20
2023-05-05T02:08:43.863Z,13.20
2023-05-05T02:11:12.590Z,13.10
2023-05-05T02:13:43.014Z,13.00
2023-05-05T02:16:11.724Z,13.00
2023-05-05T02:18:39.414Z,13.00
2023-05-05T02:23:53.077Z,12.90
2023-05-05T02:26:23.813Z,12.90
2023-05-05T02:29:17.549Z,13.00
2023-05-05T02:31:49.245Z,12.80
2023-05-05T02:34:24.656Z,12.80
2023-05-05T02:36:59.973Z,12.70
2023-05-05T02:39:44.848Z,12.60
2023-05-05T02:42:22.449Z,12.50
2023-05-05T02:44:51.947Z,12.50
2023-05-05T02:47:21.241Z,12.50
2023-05-05T02:49:48.458Z,12.30
2023-05-05T02:55:01.651Z,12.40
2023-05-05T02:57:50.078Z,12.40
2023-05-05T03:00:32.530Z,12.40
2023-05-05T03:03:49.368Z,12.40
2023-05-05T03:06:31.235Z,12.40
2023-05-05T03:09:14.346Z,12.40
2023-05-05T03:12:01.022Z,12.40
2023-05-05T03:14:37.066Z,12.40
2023-05-05T03:17:05.621Z,12.30
2023-05-05T03:19:33.739Z,12.30
2023-05-05T03:22:03.202Z,12.30
2023-05-05T03:24:30.384Z,12.40
2023-05-05T03:26:57.906Z,12.30
2023-05-05T03:29:25.625Z,12.20
2023-05-05T03:31:53.249Z,12.20
2023-05-05T03:34:20.747Z,12.20
2023-05-05T03:36:47.977Z,12.10
2023-05-05T03:39:15.756Z,12.20
2023-05-05T03:41:43.035Z,12.00
2023-05-05T03:44:10.614Z,12.10
2023-05-05T03:46:39.249Z,12.00
2023-05-05T03:49:16.499Z,12.20
2023-05-05T03:51:47.863Z,12.20
2023-05-05T03:54:20.777Z,12.10
2023-05-05T03:56:53.784Z,12.00
2023-05-05T03:59:24.593Z,12.10
2023-05-05T04:01:56.442Z,12.10
2023-05-05T04:04:24.826Z,12.00
2023-05-05T04:06:59.430Z,11.90
2023-05-05T04:09:29.812Z,12.00
2023-05-05T04:11:57.326Z,12.10
2023-05-05T04:14:24.670Z,12.30
2023-05-05T04:16:51.969Z,12.30
2023-05-05T04:19:19.115Z,12.30
2023-05-05T04:21:47.668Z,12.30
2023-05-05T04:24:15.317Z,12.50
2023-05-05T04:26:43.665Z,12.40
2023-05-05T04:29:15.056Z,12.30
2023-05-05T04:31:42.561Z,12.20
2023-05-05T04:34:09.905Z,12.50
2023-05-05T04:36:37.328Z,12.70
2023-05-05T04:39:08.836Z,12.90
2023-05-05T04:41:36.086Z,12.70
2023-05-05T04:44:08.740Z,12.50
2023-05-05T04:46:36.718Z,12.70
2023-05-05T04:49:05.259Z,12.70
2023-05-05T04:51:32.679Z,13.00
2023-05-05T04:54:08.104Z,13.10
2023-05-05T04:56:35.369Z,13.10
2023-05-05T04:59:05.697Z,13.00
2023-05-05T05:01:35.248Z,13.10
2023-05-05T05:04:05.050Z,13.30
2023-05-05T05:06:32.892Z,13.20
2023-05-05T05:09:00.792Z,13.20
2023-05-05T05:11:28.261Z,13.30
2023-05-05T05:13:57.827Z,13.00
2023-05-05T05:16:32.136Z,12.90
2023-05-05T05:19:01.509Z,12.80
2023-05-05T05:21:29.231Z,12.60
2023-05-05T05:23:56.960Z,12.80
2023-05-05T05:26:24.734Z,12.90
2023-05-05T05:28:52.341Z,12.90
2023-05-05T05:31:19.548Z,13.10
2023-05-05T05:33:46.777Z,13.20
2023-05-05T05:36:15.845Z,13.50
2023-05-05T05:38:43.568Z,13.60
2023-05-05T05:41:14.016Z,13.40
2023-05-05T05:43:41.984Z,13.40
2023-05-05T05:46:09.544Z,13.50
2023-05-05T05:48:36.913Z,13.50
2023-05-05T05:51:07.635Z,13.60
2023-05-05T05:53:35.191Z,13.70
2023-05-05T05:56:02.462Z,13.90
2023-05-05T05:58:29.998Z,13.90
2023-05-05T06:00:59.351Z,14.00
2023-05-05T06:03:30.808Z,14.10
2023-05-05T06:05:59.390Z,14.30
2023-05-05T06:08:27.110Z,14.50
2023-05-05T06:11:01.957Z,14.20
2023-05-05T06:13:29.820Z,14.30
2023-05-05T06:15:57.557Z,14.30
2023-05-05T06:18:25.355Z,14.40
2023-05-05T06:20:52.690Z,14.60
2023-05-05T06:23:19.836Z,14.70
2023-05-05T06:25:47.789Z,14.60
2023-05-05T06:28:17.182Z,14.80
2023-05-05T06:30:47.360Z,14.70
2023-05-05T06:33:15.062Z,14.60
2023-05-05T06:35:42.223Z,14.70
2023-05-05T06:38:11.197Z,14.70
2023-05-05T06:40:38.354Z,14.80
2023-05-05T06:43:08.470Z,14.70
2023-05-05T06:45:39.574Z,14.90
2023-05-05T06:48:07.477Z,15.10
2023-05-05T06:50:37.904Z,15.10
2023-05-05T06:53:05.114Z,15.00
2023-05-05T06:55:32.272Z,15.00
2023-05-05T06:57:59.455Z,15.00
2023-05-05T07:00:27.867Z,15.10
2023-05-05T07:02:59.611Z,15.30
2023-05-05T07:05:27.126Z,15.30
2023-05-05T07:07:55.705Z,15.30
2023-05-05T07:10:25.179Z,15.30
2023-05-05T07:12:52.626Z,15.30
2023-05-05T07:15:28.829Z,15.60
2023-05-05T07:17:57.165Z,15.80
2023-05-05T07:20:25.795Z,15.80
2023-05-05T07:22:56.264Z,15.90
2023-05-05T07:25:23.472Z,15.80
2023-05-05T07:27:53.882Z,15.90
2023-05-05T07:30:28.930Z,16.00
2023-05-05T07:32:58.842Z,16.10
2023-05-05T07:35:26.582Z,16.00
2023-05-05T07:38:01.407Z,16.00
2023-05-05T07:40:49.210Z,16.00
2023-05-05T07:43:17.093Z,16.20
2023-05-05T07:45:44.631Z,16.20
2023-05-05T07:48:12.009Z,16.40
2023-05-05T07:50:46.983Z,16.30
2023-05-05T07:53:15.876Z,16.20
2023-05-05T07:55:46.136Z,16.30
2023-05-05T07:58:13.508Z,16.40
2023-05-05T08:00:41.108Z,16.40
2023-05-05T08:03:11.381Z,16.60
2023-05-05T08:05:42.300Z,16.80
2023-05-05T08:08:13.320Z,16.80
2023-05-05T08:10:40.727Z,16.60
2023-05-05T08:13:16.872Z,16.60
2023-05-05T08:15:47.212Z,16.70
2023-05-05T08:18:15.099Z,16.90
2023-05-05T08:20:45.150Z,17.00
2023-05-05T08:23:15.822Z,17.10
2023-05-05T08:25:51.460Z,17.10
2023-05-05T08:28:26.198Z,17.10
2023-05-05T08:30:56.790Z,17.20
2023-05-05T08:33:27.560Z,17.50
2023-05-05T08:35:55.089Z,17.80
2023-05-05T08:38:25.470Z,17.90
2023-05-05T08:40:53.640Z,17.90
2023-05-05T08:43:22.970Z,18.00
2023-05-05T08:45:53.767Z,18.30
2023-05-05T08:48:27.813Z,18.60
2023-05-05T08:51:05.761Z,18.80
2023-05-05T08:53:54.288Z,18.80
2023-05-05T08:56:25.388Z,18.30
2023-05-05T08:58:56.228Z,18.60
2023-05-05T09:01:24.133Z,18.90
2023-05-05T09:03:52.713Z,18.90
2023-05-05T09:06:25.778Z,18.90
2023-05-05T09:08:59.519Z,19.20
2023-05-05T09:11:28.370Z,19.50
2023-05-05T09:14:08.820Z,19.50
2023-05-05T09:16:36.198Z,19.30
2023-05-05T09:19:04.372Z,19.40
2023-05-05T09:21:32.509Z,19.50
2023-05-05T09:24:24.574Z,19.50
2023-05-05T09:26:52.131Z,19.50
2023-05-05T09:29:25.403Z,19.80
2023-05-05T09:32:11.405Z,20.30
2023-05-05T09:34:38.960Z,20.50
2023-05-05T09:37:06.590Z,20.60
2023-05-05T09:39:36.308Z,20.80
2023-05-05T09:42:06.592Z,20.90
2023-05-05T09:44:35.327Z,21.10
2023-05-05T09:47:14.813Z,21.20
2023-05-05T09:50:03.992Z,21.00
2023-05-05T09:52:33.184Z,21.00
2023-05-05T09:55:39.601Z,21.30
2023-05-05T09:58:32.646Z,21.60
2023-05-05T10:01:00.825Z,21.50
2023-05-05T10:03:28.340Z,21.20
2023-05-05T10:06:03.847Z,21.40
2023-05-05T10:08:33.761Z,21.20
2023-05-05T10:11:06.596Z,20.90
2023-05-05T10:13:41.298Z,20.70
2023-05-05T10:16:09.880Z,19.80
2023-05-05T10:18:40.425Z,19.80
2023-05-05T10:21:09.378Z,19.70
2023-05-05T10:23:42.055Z,19.50
2023-05-05T10:26:17.304Z,19.10
2023-05-05T10:28:52.101Z,19.60
2023-05-05T10:31:50.324Z,19.60
2023-05-05T10:34:39.465Z,19.20
2023-05-05T10:37:07.822Z,19.40
2023-05-05T10:39:40.760Z,19.50
2023-05-05T10:42:11.185Z,19.80
2023-05-05T10:44:54.912Z,19.50
2023-05-05T10:47:24.976Z,19.10
2023-05-05T10:50:30.889Z,19.40
2023-05-05T10:53:23.952Z,19.70
2023-05-05T10:55:54.285Z,20.70
2023-05-05T10:58:51.036Z,20.90
2023-05-05T11:01:34.649Z,20.90
2023-05-05T11:04:29.628Z,21.30
2023-05-05T11:07:29.970Z,21.00
2023-05-05T11:10:21.282Z,20.60
2023-05-05T11:13:05.111Z,20.30
2023-05-05T11:15:38.944Z,20.20
2023-05-05T11:18:08.275Z,20.20
2023-05-05T11:20:52.306Z,20.20
2023-05-05T11:23:20.172Z,20.40
2023-05-05T11:25:49.294Z,20.60
2023-05-05T11:28:19.225Z,20.50
2023-05-05T11:31:15.590Z,21.20
2023-05-05T11:33:53.182Z,21.70
2023-05-05T11:36:41.125Z,21.30
2023-05-05T11:39:29.467Z,20.80
2023-05-05T11:42:12.898Z,21.30
2023-05-05T11:44:49.858Z,21.00
2023-05-05T11:47:17.043Z,20.70
2023-05-05T11:49:44.269Z,20.20
2023-05-05T11:52:13.296Z,21.50
2023-05-05T11:54:51.464Z,22.20
2023-05-05T11:57:28.188Z,22.20
2023-05-05T12:00:10.604Z,21.30
2023-05-05T12:08:14.609Z,20.50
2023-05-05T12:10:45.017Z,21.00
2023-05-05T12:19:51.429Z,20.70
2023-05-05T12:22:44.546Z,21.30
2023-05-05T12:25:13.759Z,21.30
2023-05-05T12:27:41.860Z,21.20
2023-05-05T12:30:18.156Z,20.80
2023-05-05T12:32:47.405Z,21.50
2023-05-05T12:35:31.842Z,21.70
2023-05-05T12:38:07.453Z,22.00
2023-05-05T12:40:58.268Z,22.50
2023-05-05T12:43:28.650Z,23.00
2023-05-05T12:46:13.030Z,23.00
2023-05-05T12:49:24.709Z,23.10
2023-05-05T12:51:57.037Z,23.60
2023-05-05T12:54:25.707Z,24.70
2023-05-05T12:56:53.058Z,24.40
2023-05-05T12:59:31.042Z,23.70
2023-05-05T13:02:07.222Z,22.90
2023-05-05T13:05:08.144Z,22.40
2023-05-05T13:07:36.540Z,21.70
2023-05-05T13:10:12.271Z,21.30
2023-05-05T13:12:44.175Z,21.80
2023-05-05T13:15:23.677Z,23.30
2023-05-05T13:18:01.880Z,24.30
2023-05-05T13:20:34.718Z,25.10
2023-05-05T13:23:24.134Z,27.10
2023-05-05T13:28:33.927Z,22.90
2023-05-05T13:31:03.776Z,22.60
2023-05-05T13:33:37.027Z,22.40
2023-05-05T13:39:03.848Z,22.80
2023-05-05T13:41:38.650Z,23.30
2023-05-05T13:47:27.840Z,24.70
2023-05-05T13:50:04.817Z,22.70
2023-05-05T13:52:33.015Z,25.60
2023-05-05T13:55:19.808Z,25.30
2023-05-05T13:58:42.566Z,22.70
2023-05-05T14:01:15.329Z,25.20
2023-05-05T14:04:11.191Z,25.70
2023-05-05T14:10:40.108Z,26.50
2023-05-05T14:13:15.571Z,25.30
2023-05-05T14:15:56.243Z,25.30
2023-05-05T14:28:37.678Z,22.90
2023-05-05T14:31:09.789Z,23.30
2023-05-05T14:33:37.593Z,21.90
2023-05-05T14:36:06.546Z,21.80
2023-05-05T14:38:33.702Z,21.80
2023-05-05T14:41:01.191Z,22.00
2023-05-05T14:43:31.111Z,21.50
2023-05-05T14:46:00.471Z,21.40
2023-05-05T14:48:36.263Z,21.90
2023-05-05T14:51:13.173Z,24.60
2023-05-05T14:53:50.257Z,29.10
2023-05-05T14:56:21.810Z,28.20
2023-05-05T14:58:50.388Z,24.10
2023-05-05T15:01:42.039Z,24.80
2023-05-05T15:05:04.398Z,22.80
2023-05-05T15:08:28.445Z,26.00
2023-05-05T15:11:21.091Z,25.50
2023-05-05T15:13:50.993Z,26.50
2023-05-05T15:16:19.697Z,25.60
2023-05-05T15:18:55.733Z,22.70
2023-05-05T15:21:28.511Z,21.90
2023-05-05T15:23:55.866Z,21.80
2023-05-05T15:26:25.151Z,21.70
2023-05-05T15:28:55.577Z,21.70
2023-05-05T15:31:26.803Z,22.20
2023-05-05T15:34:03.298Z,21.80
2023-05-05T15:36:35.146Z,25.20
2023-05-05T15:39:08.992Z,25.20
2023-05-05T15:41:45.028Z,23.40
2023-05-05T15:44:21.171Z,22.10
2023-05-05T15:47:09.571Z,22.40
2023-05-05T15:49:51.458Z,23.70
2023-05-05T15:52:22.831Z,22.70
2023-05-05T16:04:00.165Z,21.60
2023-05-05T16:06:38.126Z,21.40
2023-05-05T16:09:06.647Z,21.40
2023-05-05T16:11:38.285Z,21.90
2023-05-05T16:14:20.162Z,22.10
2023-05-05T16:16:49.023Z,22.10
2023-05-05T16:19:44.211Z,21.90
2023-05-05T16:22:27.392Z,21.70
2023-05-05T16:25:19.923Z,21.80
2023-05-05T16:28:10.232Z,21.90
2023-05-05T16:34:05.731Z,23.00
2023-05-05T16:36:33.468Z,22.40
2023-05-05T16:45:27.512Z,22.10
2023-05-05T16:51:00.313Z,21.80
2023-05-05T16:53:37.533Z,21.70
2023-05-05T16:56:15.425Z,21.60
2023-05-05T17:06:59.829Z,22.30
2023-05-05T17:13:24.889Z,24.30
2023-05-05T17:15:53.190Z,23.10
2023-05-05T17:18:35.218Z,22.20
2023-05-05T17:21:26.063Z,21.70
2023-05-05T17:24:25.893Z,21.40
2023-05-05T17:29:45.851Z,21.10
2023-05-05T17:32:30.862Z,21.00
2023-05-05T17:37:52.885Z,20.90
2023-05-05T17:41:00.150Z,20.80
2023-05-05T17:47:24.845Z,20.60
2023-05-05T17:56:22.918Z,20.40
2023-05-05T18:01:39.476Z,20.30
2023-05-05T18:04:19.260Z,20.20
2023-05-05T18:06:52.871Z,20.20
2023-05-05T18:09:25.543Z,20.20
2023-05-05T18:12:08.014Z,20.20
2023-05-05T18:14:38.781Z,20.10
2023-05-05T18:17:08.356Z,20.10
2023-05-05T18:19:49.100Z,20.10
2023-05-05T18:22:17.202Z,20.10
2023-05-05T18:24:51.404Z,20.20
2023-05-05T18:27:22.371Z,20.10
2023-05-05T18:29:56.269Z,20.00
2023-05-05T18:35:23.826Z,20.00
2023-05-05T18:37:56.225Z,20.00
2023-05-05T18:40:34.394Z,20.00
2023-05-05T18:49:41.337Z,19.80
2023-05-05T18:52:12.933Z,19.70
2023-05-05T18:54:41.505Z,19.70
2023-05-05T19:02:49.117Z,19.70
2023-05-05T19:05:27.813Z,19.70
2023-05-05T19:07:59.174Z,19.70
2023-05-05T19:10:34.074Z,19.60
2023-05-05T19:13:03.970Z,19.60
2023-05-05T19:25:30.018Z,19.40
2023-05-05T19:28:26.430Z,19.40
2023-05-05T19:31:01.480Z,19.30
2023-05-05T19:33:36.266Z,19.20
2023-05-05T19:36:06.640Z,19.20
2023-05-05T19:38:34.999Z,19.10
2023-05-05T19:41:14.052Z,19.10
2023-05-05T19:44:09.624Z,19.00
2023-05-05T19:47:41.015Z,19.10
2023-05-05T19:50:11.117Z,18.90
2023-05-05T19:55:59.418Z,19.00
2023-05-05T19:59:07.105Z,18.90
2023-05-05T20:08:42.261Z,18.70
2023-05-05T20:11:59.426Z,18.80
2023-05-05T20:14:31.660Z,18.70
2023-05-05T20:19:58.895Z,18.80
2023-05-05T20:22:38.844Z,18.70
2023-05-05T20:25:25.989Z,18.70
2023-05-05T20:27:53.884Z,18.70
2023-05-05T20:30:28.898Z,18.60
2023-05-05T20:32:56.393Z,18.60
2023-05-05T20:35:24.917Z,18.60
2023-05-05T20:37:52.414Z,18.60
2023-05-05T20:40:19.760Z,18.60
2023-05-05T20:42:50.654Z,18.50
2023-05-05T20:45:19.144Z,18.50
2023-05-05T20:47:48.058Z,18.60
2023-05-05T20:50:16.315Z,18.50
2023-05-05T20:52:47.599Z,18.40
2023-05-05T20:55:19.353Z,18.40
2023-05-05T20:57:47.140Z,18.40
2023-05-05T21:00:17.817Z,18.40
2023-05-05T21:02:45.977Z,18.30
2023-05-05T21:05:16.976Z,18.30
2023-05-05T21:07:44.962Z,18.30
2023-05-05T21:10:15.737Z,18.30
2023-05-05T21:12:51.372Z,18.20
2023-05-05T21:15:19.808Z,18.10
2023-05-05T21:17:50.838Z,18.00
2023-05-05T21:20:28.875Z,17.90
2023-05-05T21:22:58.888Z,18.00
2023-05-05T21:25:27.368Z,17.90
2023-05-05T21:27:55.239Z,17.80
2023-05-05T21:30:32.739Z,17.80
2023-05-05T21:39:00.288Z,17.60
2023-05-05T21:41:41.779Z,17.50
2023-05-05T21:44:32.368Z,17.50
2023-05-05T21:47:25.063Z,17.50
2023-05-05T21:49:59.307Z,17.40
2023-05-05T21:52:38.186Z,17.40
2023-05-05T21:55:22.066Z,17.30
2023-05-05T21:58:21.925Z,17.50
2023-05-05T22:01:03.873Z,17.50
2023-05-05T22:03:54.430Z,17.30
2023-05-05T22:07:03.460Z,17.10
2023-05-05T22:09:46.636Z,17.20
2023-05-05T22:12:20.263Z,17.20
2023-05-05T22:14:51.074Z,17.30
2023-05-05T22:17:18.949Z,16.90
2023-05-05T22:23:59.311Z,16.80
2023-05-05T22:27:04.724Z,16.60
2023-05-05T22:29:46.146Z,16.40
2023-05-05T22:32:46.492Z,16.30
2023-05-05T22:35:20.510Z,16.40
2023-05-05T22:38:42.348Z,16.50
2023-05-05T22:41:21.361Z,16.50
2023-05-05T22:43:55.857Z,16.40
2023-05-05T22:46:27.573Z,16.30
2023-05-05T22:48:55.471Z,16.40
2023-05-05T22:51:33.260Z,16.40
2023-05-05T22:54:07.875Z,16.30
2023-05-05T22:56:44.534Z,16.30
2023-05-05T22:59:15.680Z,16.30
2023-05-05T23:01:48.790Z,16.20
2023-05-05T23:04:26.313Z,16.10
2023-05-05T23:06:53.720Z,16.00
2023-05-05T23:09:21.056Z,16.10
2023-05-05T23:11:49.935Z,15.90
2023-05-05T23:14:32.026Z,15.80
2023-05-05T23:17:02.486Z,15.60
2023-05-05T23:19:34.634Z,15.40
2023-05-05T23:22:02.662Z,15.50
2023-05-05T23:24:31.991Z,15.60
2023-05-05T23:27:02.219Z,15.60
2023-05-05T23:29:31.574Z,15.50
2023-05-05T23:31:58.790Z,15.40
2023-05-05T23:34:26.979Z,15.40
2023-05-05T23:36:57.915Z,15.30
2023-05-05T23:39:27.360Z,15.10
2023-05-05T23:41:54.730Z,14.70
2023-05-05T23:44:25.098Z,15.00
2023-05-05T23:46:52.776Z,14.90
2023-05-05T23:49:21.247Z,14.80
2023-05-05T23:51:52.776Z,14.80
2023-05-05T23:54:21.638Z,14.70
2023-05-05T23:56:51.897Z,14.80
2023-05-05T23:59:19.282Z,14.80
